Time;durP1;ratioP1;P1;durP2;ratioP2;P2;SDS_P1;SDS_P2;PMS_P1;PMS_P2;Temp;Humidity;BMP_temperature;BMP_pressure;BME280_temperature;BME280_humidity;BME280_pressure;Samples;Min_cycle;Max_cycle;Signal;HPM_P1;HPM_P2
2023/11/08 00:00:14;;;;;;;2.38;0.90;;;;;;;;;;699726;28;1887;-63
2023/11/08 00:00:34;;;;;;;4.13;1.10;;;;;;;;;;703725;28;1359;-62
2023/11/08 00:00:55;;;;;;;4.10;1.30;;;;;;;;;;702305;28;4406;-64
2023/11/08 00:01:15;;;;;;;4.45;1.10;;;;;;;;;;701451;28;2284;-64
2023/11/08 00:01:35;;;;;;;4.73;1.20;;;;;;;;;;702785;28;1199;-63
2023/11/08 00:01:56;;;;;;;3.70;1.30;;;;;;;;;;700037;28;1285;-64
2023/11/08 00:02:16;;;;;;;4.97;1.10;;;;;;;;;;698802;28;2221;-64
2023/11/08 00:02:36;;;;;;;4.13;1.30;;;;;;;;;;698968;28;1199;-64
2023/11/08 00:02:57;;;;;;;3.72;1.17;;;;;;;;;;701101;28;1346;-65
2023/11/08 00:03:17;;;;;;;3.27;1.30;;;;;;;;;;695310;28;1490;-63
2023/11/08 00:03:38;;;;;;;3.63;1.10;;;;;;;;;;696884;28;1214;-64
2023/11/08 00:03:58;;;;;;;3.38;1.00;;;;;;;;;;699983;28;4352;-64
2023/11/08 00:04:20;;;;;;;3.20;1.10;;;;;;;;;;701692;28;2492;-63
2023/11/08 00:04:40;;;;;;;2.70;1.00;;;;;;;;;;702764;28;1218;-63
2023/11/08 00:05:03;;;;;;;3.37;0.93;;;;;;;;;;703760;28;1348;-65
2023/11/08 00:05:26;;;;;;;2.72;1.08;;;;;;;;;;703897;28;1473;-63
2023/11/08 00:05:47;;;;;;;3.33;1.10;;;;;;;;;;704683;28;1375;-63
2023/11/08 00:06:08;;;;;;;3.60;1.10;;;;;;;;;;703002;28;1182;-64
2023/11/08 00:06:29;;;;;;;4.18;1.10;;;;;;;;;;698725;28;2373;-64
2023/11/08 00:06:50;;;;;;;3.17;1.00;;;;;;;;;;700886;28;1673;-64
2023/11/08 00:07:11;;;;;;;3.67;1.15;;;;;;;;;;699606;28;4539;-64
2023/11/08 00:07:33;;;;;;;3.22;1.20;;;;;;;;;;699144;28;1310;-64
2023/11/08 00:07:54;;;;;;;4.05;1.30;;;;;;;;;;701124;28;1229;-64
2023/11/08 00:08:15;;;;;;;4.03;1.10;;;;;;;;;;700240;28;2270;-63
2023/11/08 00:08:36;;;;;;;3.25;1.00;;;;;;;;;;704010;28;1230;-63
2023/11/08 00:08:58;;;;;;;4.57;1.20;;;;;;;;;;704069;28;1266;-64
2023/11/08 00:09:19;;;;;;;2.85;1.00;;;;;;;;;;702029;28;1441;-63
2023/11/08 00:09:40;;;;;;;2.78;1.05;;;;;;;;;;703441;28;1229;-64
2023/11/08 00:10:00;;;;;;;3.65;1.10;;;;;;;;;;703813;28;4502;-64
2023/11/08 00:10:21;;;;;;;4.13;1.23;;;;;;;;;;705446;28;1925;-64
2023/11/08 00:10:41;;;;;;;3.03;1.10;;;;;;;;;;703139;28;1274;-65
2023/11/08 00:11:03;;;;;;;3.65;1.25;;;;;;;;;;700048;28;1257;-63
2023/11/08 00:11:23;;;;;;;3.08;0.90;;;;;;;;;;699718;28;1663;-63
2023/11/08 00:11:44;;;;;;;2.70;1.20;;;;;;;;;;696725;28;1239;-64
2023/11/08 00:12:04;;;;;;;2.53;1.30;;;;;;;;;;697316;28;1272;-63
2023/11/08 00:12:24;;;;;;;2.95;1.05;;;;;;;;;;694323;28;1587;-62
2023/11/08 00:12:45;;;;;;;2.27;0.97;;;;;;;;;;698259;28;1298;-64
2023/11/08 00:13:05;;;;;;;3.92;1.00;;;;;;;;;;700203;28;4833;-65
2023/11/08 00:13:25;;;;;;;3.67;1.03;;;;;;;;;;696375;28;2619;-64
2023/11/08 00:13:46;;;;;;;3.40;1.20;;;;;;;;;;702132;28;1376;-63
2023/11/08 00:14:10;;;;;;;5.55;1.20;;;;;;;;;;701163;28;1273;-63
2023/11/08 00:14:30;;;;;;;5.43;1.10;;;;;;;;;;699105;28;2199;-64
2023/11/08 00:14:51;;;;;;;4.10;1.13;;;;;;;;;;702859;28;1420;-64
2023/11/08 00:15:11;;;;;;;3.97;1.20;;;;;;;;;;698680;28;1289;-64
2023/11/08 00:15:31;;;;;;;2.57;1.20;;;;;;;;;;701945;28;1232;-65
2023/11/08 00:15:52;;;;;;;3.60;1.20;;;;;;;;;;701413;28;1420;-65
2023/11/08 00:16:12;;;;;;;3.67;1.27;;;;;;;;;;700493;28;4259;-62
2023/11/08 00:16:32;;;;;;;2.87;1.10;;;;;;;;;;701189;28;1263;-63
2023/11/08 00:16:54;;;;;;;4.32;1.13;;;;;;;;;;701264;28;1155;-63
2023/11/08 00:17:14;;;;;;;3.58;1.02;;;;;;;;;;701919;28;2499;-64
2023/11/08 00:17:35;;;;;;;4.13;1.10;;;;;;;;;;701878;28;1123;-64
2023/11/08 00:17:55;;;;;;;3.95;1.17;;;;;;;;;;700015;28;1218;-64
2023/11/08 00:18:16;;;;;;;3.17;0.90;;;;;;;;;;699338;28;1943;-63
2023/11/08 00:18:36;;;;;;;3.88;1.20;;;;;;;;;;698469;28;1204;-63
2023/11/08 00:18:57;;;;;;;2.83;1.30;;;;;;;;;;698047;28;4242;-65
2023/11/08 00:19:17;;;;;;;4.10;1.33;;;;;;;;;;696334;28;1701;-66
2023/11/08 00:19:37;;;;;;;4.77;1.30;;;;;;;;;;698275;28;1299;-64
2023/11/08 00:19:58;;;;;;;2.87;1.27;;;;;;;;;;698663;28;1281;-63
2023/11/08 00:20:18;;;;;;;3.40;1.07;;;;;;;;;;696019;28;3774;-63
2023/11/08 00:20:38;;;;;;;4.30;1.10;;;;;;;;;;706380;28;1258;-63
2023/11/08 00:21:00;;;;;;;3.60;1.17;;;;;;;;;;706232;28;1280;-63
2023/11/08 00:21:20;;;;;;;3.55;1.00;;;;;;;;;;704315;28;2332;-63
2023/11/08 00:21:40;;;;;;;3.97;1.10;;;;;;;;;;705785;28;1213;-63
2023/11/08 00:22:01;;;;;;;3.67;1.02;;;;;;;;;;705897;28;4373;-62
2023/11/08 00:22:21;;;;;;;2.17;0.87;;;;;;;;;;705353;28;2148;-64
2023/11/08 00:22:44;;;;;;;3.33;1.00;;;;;;;;;;705062;28;1312;-65
2023/11/08 00:23:04;;;;;;;4.10;1.00;;;;;;;;;;706199;28;1256;-63
2023/11/08 00:23:25;;;;;;;5.32;1.20;;;;;;;;;;703421;28;1732;-64
2023/11/08 00:23:45;;;;;;;3.67;1.20;;;;;;;;;;702818;28;1260;-64
2023/11/08 00:24:05;;;;;;;2.73;1.00;;;;;;;;;;703874;28;1320;-64
2023/11/08 00:24:28;;;;;;;4.43;1.23;;;;;;;;;;698900;28;1849;-65
2023/11/08 00:24:49;;;;;;;3.22;1.00;;;;;;;;;;696648;28;1429;-63
2023/11/08 00:25:10;;;;;;;2.60;1.00;;;;;;;;;;696171;28;4267;-63
2023/11/08 00:25:30;;;;;;;4.00;1.30;;;;;;;;;;694540;28;2506;-64
2023/11/08 00:25:50;;;;;;;4.37;1.30;;;;;;;;;;698829;28;1577;-64
2023/11/08 00:26:12;;;;;;;3.97;1.17;;;;;;;;;;699174;28;1606;-62
2023/11/08 00:26:34;;;;;;;2.85;1.40;;;;;;;;;;700065;28;1242;-65
2023/11/08 00:26:54;;;;;;;4.50;1.40;;;;;;;;;;700001;28;1341;-63
2023/11/08 00:27:15;;;;;;;4.80;1.63;;;;;;;;;;701790;28;1973;-64
2023/11/08 00:27:36;;;;;;;3.45;1.40;;;;;;;;;;703891;28;1268;-65
2023/11/08 00:27:56;;;;;;;3.50;1.00;;;;;;;;;;702663;28;4329;-63
2023/11/08 00:28:17;;;;;;;3.00;1.07;;;;;;;;;;702718;28;1770;-63
2023/11/08 00:28:37;;;;;;;2.67;0.90;;;;;;;;;;703520;28;1181;-64
2023/11/08 00:28:57;;;;;;;2.13;0.90;;;;;;;;;;702662;28;1292;-64
2023/11/08 00:29:17;;;;;;;4.35;1.30;;;;;;;;;;702454;28;1656;-64
2023/11/08 00:29:39;;;;;;;5.17;1.20;;;;;;;;;;704016;28;1457;-63
2023/11/08 00:30:03;;;;;;;3.53;1.00;;;;;;;;;;700203;28;1421;-64
2023/11/08 00:30:23;;;;;;;4.03;1.20;;;;;;;;;;697629;28;1588;-63
2023/11/08 00:30:43;;;;;;;3.67;1.10;;;;;;;;;;699568;28;1507;-63
2023/11/08 00:31:04;;;;;;;3.33;1.00;;;;;;;;;;699865;28;4416;-64
2023/11/08 00:31:24;;;;;;;2.43;1.00;;;;;;;;;;697823;28;1964;-64
2023/11/08 00:31:44;;;;;;;3.97;1.08;;;;;;;;;;698667;28;1529;-62
2023/11/08 00:32:06;;;;;;;3.43;1.10;;;;;;;;;;700683;28;919;-63
2023/11/08 00:32:27;;;;;;;3.40;1.15;;;;;;;;;;700491;28;2111;-64
2023/11/08 00:32:48;;;;;;;3.97;1.20;;;;;;;;;;703700;28;1233;-64
2023/11/08 00:33:08;;;;;;;2.78;1.00;;;;;;;;;;702970;28;1281;-63
2023/11/08 00:33:28;;;;;;;2.97;1.00;;;;;;;;;;700036;28;1756;-65
2023/11/08 00:33:49;;;;;;;4.03;1.30;;;;;;;;;;701313;28;1632;-62
2023/11/08 00:34:09;;;;;;;5.00;1.48;;;;;;;;;;699900;28;4249;-63
2023/11/08 00:34:29;;;;;;;4.03;1.10;;;;;;;;;;696492;28;1293;-63
2023/11/08 00:34:50;;;;;;;3.93;1.10;;;;;;;;;;698678;28;1488;-63
2023/11/08 00:35:10;;;;;;;3.50;1.00;;;;;;;;;;698373;28;1512;-62
2023/11/08 00:35:30;;;;;;;2.83;1.10;;;;;;;;;;699330;28;2293;-62
2023/11/08 00:35:51;;;;;;;3.50;1.10;;;;;;;;;;703317;28;1464;-62
2023/11/08 00:36:11;;;;;;;3.03;1.30;;;;;;;;;;700363;28;1444;-63
2023/11/08 00:36:31;;;;;;;4.40;1.40;;;;;;;;;;699202;28;1796;-64
2023/11/08 00:36:51;;;;;;;3.78;1.17;;;;;;;;;;700280;28;1266;-64
2023/11/08 00:37:12;;;;;;;2.67;1.20;;;;;;;;;;696584;28;4358;-63
2023/11/08 00:37:32;;;;;;;2.80;1.20;;;;;;;;;;697195;28;1828;-62
2023/11/08 00:37:52;;;;;;;4.47;1.33;;;;;;;;;;698344;28;1434;-63
2023/11/08 00:38:13;;;;;;;3.10;1.10;;;;;;;;;;698083;28;1373;-63
2023/11/08 00:38:33;;;;;;;3.67;1.20;;;;;;;;;;699478;28;1747;-64
2023/11/08 00:38:53;;;;;;;4.07;1.20;;;;;;;;;;701090;28;1267;-64
2023/11/08 00:39:15;;;;;;;5.03;1.13;;;;;;;;;;698097;28;6310;-64
2023/11/08 00:39:35;;;;;;;4.07;1.10;;;;;;;;;;698924;28;1289;-64
2023/11/08 00:39:56;;;;;;;4.57;1.20;;;;;;;;;;697420;28;4370;-64
2023/11/08 00:40:17;;;;;;;3.65;1.05;;;;;;;;;;696694;28;1541;-63
2023/11/08 00:40:38;;;;;;;3.00;0.97;;;;;;;;;;698365;28;1352;-63
2023/11/08 00:40:58;;;;;;;2.45;1.20;;;;;;;;;;699110;28;1302;-63
2023/11/08 00:41:18;;;;;;;2.67;1.13;;;;;;;;;;696231;28;1864;-63
2023/11/08 00:41:39;;;;;;;2.50;1.00;;;;;;;;;;695965;28;1242;-63
2023/11/08 00:41:59;;;;;;;3.37;1.10;;;;;;;;;;698632;28;1333;-63
2023/11/08 00:42:19;;;;;;;2.87;1.10;;;;;;;;;;698722;28;2107;-64
2023/11/08 00:42:40;;;;;;;4.07;1.10;;;;;;;;;;700606;28;1317;-63
2023/11/08 00:43:00;;;;;;;3.47;1.07;;;;;;;;;;699861;28;4330;-63
2023/11/08 00:43:20;;;;;;;3.30;1.10;;;;;;;;;;702902;28;1900;-64
2023/11/08 00:43:41;;;;;;;3.90;1.13;;;;;;;;;;705531;28;1205;-64
2023/11/08 00:44:02;;;;;;;3.67;1.20;;;;;;;;;;702945;28;1226;-64
2023/11/08 00:44:22;;;;;;;2.60;1.20;;;;;;;;;;701738;28;2214;-64
2023/11/08 00:44:43;;;;;;;2.37;1.00;;;;;;;;;;702828;28;1266;-64
2023/11/08 00:45:07;;;;;;;4.00;1.10;;;;;;;;;;703775;28;1320;-64
2023/11/08 00:45:27;;;;;;;4.03;1.40;;;;;;;;;;701664;28;1743;-64
2023/11/08 00:45:47;;;;;;;2.55;0.90;;;;;;;;;;703991;28;1210;-64
2023/11/08 00:46:08;;;;;;;3.00;0.98;;;;;;;;;;703011;28;4321;-64
2023/11/08 00:46:28;;;;;;;3.97;1.10;;;;;;;;;;698994;28;1744;-64
2023/11/08 00:46:48;;;;;;;5.33;2.10;;;;;;;;;;696496;28;1243;-65
2023/11/08 00:47:09;;;;;;;4.50;1.70;;;;;;;;;;697146;28;1373;-64
2023/11/08 00:47:29;;;;;;;2.72;1.00;;;;;;;;;;696573;28;1966;-65
2023/11/08 00:47:52;;;;;;;3.10;1.00;;;;;;;;;;697532;28;1301;-65
2023/11/08 00:48:12;;;;;;;3.63;1.00;;;;;;;;;;698981;28;1326;-65
2023/11/08 00:48:33;;;;;;;2.83;1.00;;;;;;;;;;700005;28;1839;-65
2023/11/08 00:48:53;;;;;;;4.50;1.02;;;;;;;;;;703616;28;4242;-64
2023/11/08 00:49:14;;;;;;;4.35;1.10;;;;;;;;;;704393;28;890;-65
2023/11/08 00:49:35;;;;;;;4.38;1.10;;;;;;;;;;702577;28;1564;-66
2023/11/08 00:49:56;;;;;;;2.85;1.00;;;;;;;;;;704029;28;1340;-65
2023/11/08 00:50:16;;;;;;;2.77;1.07;;;;;;;;;;704895;27;2649;-64
2023/11/08 00:50:36;;;;;;;3.77;1.00;;;;;;;;;;703794;28;1265;-64
2023/11/08 00:50:56;;;;;;;3.78;1.10;;;;;;;;;;699999;28;1301;-65
2023/11/08 00:51:19;;;;;;;2.67;1.00;;;;;;;;;;700255;28;1733;-65
2023/11/08 00:51:40;;;;;;;3.22;1.00;;;;;;;;;;699018;28;1425;-64
2023/11/08 00:52:00;;;;;;;3.25;1.00;;;;;;;;;;697381;28;4291;-63
2023/11/08 00:52:21;;;;;;;3.57;1.10;;;;;;;;;;697878;28;2541;-65
2023/11/08 00:52:41;;;;;;;3.17;1.10;;;;;;;;;;701522;28;1392;-64
2023/11/08 00:53:02;;;;;;;3.67;1.20;;;;;;;;;;703141;28;1609;-65
2023/11/08 00:53:22;;;;;;;3.35;1.10;;;;;;;;;;703008;28;1744;-63
2023/11/08 00:53:43;;;;;;;3.40;1.50;;;;;;;;;;703905;28;1242;-64
2023/11/08 00:54:03;;;;;;;3.00;1.27;;;;;;;;;;704130;27;1365;-64
2023/11/08 00:54:23;;;;;;;3.57;1.00;;;;;;;;;;702944;28;2353;-64
2023/11/08 00:54:44;;;;;;;3.80;1.07;;;;;;;;;;703371;28;1233;-63
2023/11/08 00:55:06;;;;;;;4.40;1.20;;;;;;;;;;698871;28;4353;-63
2023/11/08 00:55:26;;;;;;;3.53;1.10;;;;;;;;;;699962;28;1741;-64
2023/11/08 00:55:46;;;;;;;3.57;1.00;;;;;;;;;;699959;28;1340;-66
2023/11/08 00:56:07;;;;;;;4.03;1.00;;;;;;;;;;698997;28;1281;-65
2023/11/08 00:56:27;;;;;;;2.97;1.07;;;;;;;;;;700635;28;2292;-64
2023/11/08 00:56:47;;;;;;;3.43;1.00;;;;;;;;;;700712;28;1281;-63
2023/11/08 00:57:08;;;;;;;2.85;1.00;;;;;;;;;;698800;28;1230;-63
2023/11/08 00:57:30;;;;;;;2.37;0.90;;;;;;;;;;698411;28;1759;-64
2023/11/08 00:57:50;;;;;;;3.10;0.95;;;;;;;;;;700918;28;1614;-65
2023/11/08 00:58:11;;;;;;;4.30;1.00;;;;;;;;;;699062;28;4343;-64
2023/11/08 00:58:31;;;;;;;3.63;1.30;;;;;;;;;;699370;28;2279;-63
2023/11/08 00:58:51;;;;;;;2.87;1.20;;;;;;;;;;697314;28;1051;-65
2023/11/08 00:59:12;;;;;;;2.97;1.07;;;;;;;;;;701966;28;1265;-66
2023/11/08 00:59:32;;;;;;;3.35;1.00;;;;;;;;;;699012;28;2441;-65
2023/11/08 00:59:53;;;;;;;3.67;1.20;;;;;;;;;;703174;28;1210;-64
2023/11/08 01:00:14;;;;;;;3.95;1.17;;;;;;;;;;703141;28;1174;-66
2023/11/08 01:00:34;;;;;;;3.45;1.00;;;;;;;;;;702683;28;1228;-63
2023/11/08 01:00:55;;;;;;;3.73;1.10;;;;;;;;;;701708;28;4347;-64
2023/11/08 01:01:15;;;;;;;3.43;1.10;;;;;;;;;;702536;28;1193;-65
2023/11/08 01:01:36;;;;;;;5.27;1.90;;;;;;;;;;701599;28;1767;-64
2023/11/08 01:01:57;;;;;;;4.93;1.80;;;;;;;;;;699510;28;1293;-63
2023/11/08 01:02:17;;;;;;;4.97;1.07;;;;;;;;;;698375;28;1611;-65
2023/11/08 01:02:37;;;;;;;3.10;1.20;;;;;;;;;;700186;28;1274;-63
2023/11/08 01:02:59;;;;;;;4.88;1.40;;;;;;;;;;702028;28;1261;-65
2023/11/08 01:03:19;;;;;;;4.40;1.23;;;;;;;;;;699465;28;1885;-65
2023/11/08 01:03:39;;;;;;;3.90;1.17;;;;;;;;;;700451;28;1214;-63
2023/11/08 01:04:01;;;;;;;4.60;1.05;;;;;;;;;;703610;28;4256;-63
2023/11/08 01:04:21;;;;;;;4.47;1.30;;;;;;;;;;700032;28;2490;-64
2023/11/08 01:04:41;;;;;;;2.80;1.10;;;;;;;;;;703811;28;1328;-64
2023/11/08 01:05:02;;;;;;;2.72;1.10;;;;;;;;;;702715;28;1229;-65
2023/11/08 01:05:22;;;;;;;4.77;1.10;;;;;;;;;;700098;28;1831;-64
2023/11/08 01:05:42;;;;;;;4.72;1.10;;;;;;;;;;701575;28;1265;-64
2023/11/08 01:06:03;;;;;;;3.57;1.07;;;;;;;;;;701258;28;1265;-64
2023/11/08 01:06:25;;;;;;;3.25;1.10;;;;;;;;;;702560;28;1539;-64
2023/11/08 01:06:46;;;;;;;3.53;1.10;;;;;;;;;;704281;28;1296;-64
2023/11/08 01:07:07;;;;;;;4.18;1.15;;;;;;;;;;700653;28;4241;-63
2023/11/08 01:07:27;;;;;;;3.67;0.95;;;;;;;;;;697963;28;1902;-65
2023/11/08 01:07:47;;;;;;;4.57;1.10;;;;;;;;;;698958;28;1404;-65
2023/11/08 01:08:07;;;;;;;2.73;1.20;;;;;;;;;;698872;28;1313;-63
2023/11/08 01:08:28;;;;;;;3.70;1.10;;;;;;;;;;697623;28;2268;-65
2023/11/08 01:08:48;;;;;;;3.73;1.00;;;;;;;;;;696431;28;1405;-65
2023/11/08 01:09:10;;;;;;;3.37;1.10;;;;;;;;;;698225;28;1254;-65
2023/11/08 01:09:31;;;;;;;3.17;1.10;;;;;;;;;;697504;28;2215;-64
2023/11/08 01:09:51;;;;;;;2.80;1.10;;;;;;;;;;698477;28;1333;-65
2023/11/08 01:10:16;;;;;;;3.00;1.10;;;;;;;;;;698917;28;4353;-65
2023/11/08 01:10:36;;;;;;;2.35;1.00;;;;;;;;;;698590;28;1216;-63
2023/11/08 01:10:57;;;;;;;2.97;0.90;;;;;;;;;;696682;28;1266;-64
2023/11/08 01:11:17;;;;;;;2.73;1.00;;;;;;;;;;694418;28;1538;-63
2023/11/08 01:11:37;;;;;;;2.38;1.00;;;;;;;;;;694453;28;1398;-63
2023/11/08 01:11:59;;;;;;;2.80;1.00;;;;;;;;;;696487;28;1207;-64
2023/11/08 01:12:19;;;;;;;3.97;1.10;;;;;;;;;;695683;28;2660;-64
2023/11/08 01:12:39;;;;;;;4.10;1.30;;;;;;;;;;696300;28;1231;-63
2023/11/08 01:12:59;;;;;;;3.80;1.20;;;;;;;;;;696001;28;4314;-63
2023/11/08 01:13:20;;;;;;;4.50;1.27;;;;;;;;;;696632;28;2399;-64
2023/11/08 01:13:41;;;;;;;5.03;1.27;;;;;;;;;;704215;27;1352;-64
2023/11/08 01:14:02;;;;;;;4.30;1.15;;;;;;;;;;706490;27;1233;-63
2023/11/08 01:14:23;;;;;;;3.75;1.20;;;;;;;;;;703334;28;1667;-64
2023/11/08 01:14:43;;;;;;;2.88;1.05;;;;;;;;;;701342;28;1408;-63
2023/11/08 01:15:03;;;;;;;3.17;1.03;;;;;;;;;;698172;28;1434;-64
2023/11/08 01:15:24;;;;;;;4.35;1.10;;;;;;;;;;697080;28;2657;-64
2023/11/08 01:15:44;;;;;;;6.83;1.23;;;;;;;;;;694961;28;1480;-63
2023/11/08 01:16:07;;;;;;;5.03;1.30;;;;;;;;;;694512;28;4638;-64
2023/11/08 01:16:28;;;;;;;3.40;1.10;;;;;;;;;;695784;28;3565;-63
2023/11/08 01:16:49;;;;;;;2.97;1.00;;;;;;;;;;700497;28;1345;-67
2023/11/08 01:17:10;;;;;;;3.08;0.90;;;;;;;;;;700845;28;1459;-64
2023/11/08 01:17:30;;;;;;;3.70;1.40;;;;;;;;;;701895;28;1824;-63
2023/11/08 01:17:51;;;;;;;3.25;1.10;;;;;;;;;;706811;27;1130;-64
2023/11/08 01:18:11;;;;;;;3.17;1.15;;;;;;;;;;705690;27;1399;-66
2023/11/08 01:18:34;;;;;;;3.80;1.20;;;;;;;;;;705636;27;1751;-65
2023/11/08 01:18:54;;;;;;;2.67;0.93;;;;;;;;;;705416;27;4512;-65
2023/11/08 01:19:15;;;;;;;3.03;1.10;;;;;;;;;;704041;28;1226;-65
2023/11/08 01:19:36;;;;;;;2.90;1.10;;;;;;;;;;701864;28;2158;-65
2023/11/08 01:19:56;;;;;;;3.08;1.00;;;;;;;;;;698380;28;1323;-65
2023/11/08 01:20:16;;;;;;;4.03;1.27;;;;;;;;;;695263;28;1553;-65
2023/11/08 01:20:37;;;;;;;6.00;1.50;;;;;;;;;;692038;28;1884;-64
2023/11/08 01:20:57;;;;;;;3.20;1.00;;;;;;;;;;693774;28;1216;-63
2023/11/08 01:21:17;;;;;;;3.47;1.00;;;;;;;;;;694524;28;1773;-65
2023/11/08 01:21:38;;;;;;;4.53;0.98;;;;;;;;;;695889;28;1219;-64
2023/11/08 01:21:58;;;;;;;4.27;1.10;;;;;;;;;;696725;28;4503;-65
2023/11/08 01:22:19;;;;;;;3.47;1.30;;;;;;;;;;697217;28;1294;-66
2023/11/08 01:22:39;;;;;;;3.67;1.30;;;;;;;;;;698520;28;1250;-63
2023/11/08 01:22:59;;;;;;;3.20;1.17;;;;;;;;;;697837;28;1381;-64
2023/11/08 01:23:19;;;;;;;2.58;1.00;;;;;;;;;;697406;28;1153;-62
2023/11/08 01:23:40;;;;;;;4.17;1.10;;;;;;;;;;698274;28;1320;-64
2023/11/08 01:24:00;;;;;;;4.47;1.20;;;;;;;;;;698676;28;1308;-63
2023/11/08 01:24:22;;;;;;;3.63;1.00;;;;;;;;;;697131;28;2681;-64
2023/11/08 01:24:43;;;;;;;5.57;1.30;;;;;;;;;;700599;28;1250;-64
2023/11/08 01:25:04;;;;;;;5.23;1.30;;;;;;;;;;696565;28;4838;-62
2023/11/08 01:25:24;;;;;;;3.55;1.40;;;;;;;;;;696435;28;1532;-62
2023/11/08 01:25:46;;;;;;;3.47;1.30;;;;;;;;;;697528;28;1436;-64
2023/11/08 01:26:08;;;;;;;4.47;1.27;;;;;;;;;;698915;28;1463;-64
2023/11/08 01:26:28;;;;;;;4.38;1.20;;;;;;;;;;698822;28;2401;-63
2023/11/08 01:26:48;;;;;;;3.00;1.50;;;;;;;;;;698011;28;1415;-64
2023/11/08 01:27:09;;;;;;;2.77;1.00;;;;;;;;;;701096;28;1381;-62
2023/11/08 01:27:29;;;;;;;3.85;1.00;;;;;;;;;;699349;28;1955;-63
2023/11/08 01:27:50;;;;;;;3.28;0.90;;;;;;;;;;701097;28;1253;-63
2023/11/08 01:28:11;;;;;;;3.53;0.93;;;;;;;;;;701841;28;4413;-63
2023/11/08 01:28:31;;;;;;;3.70;1.10;;;;;;;;;;700837;28;1711;-64
2023/11/08 01:28:51;;;;;;;4.57;1.30;;;;;;;;;;704390;28;1296;-64
2023/11/08 01:29:11;;;;;;;4.10;1.00;;;;;;;;;;704558;28;1587;-63
2023/11/08 01:29:32;;;;;;;3.97;0.90;;;;;;;;;;702411;28;2371;-64
2023/11/08 01:29:53;;;;;;;3.45;0.98;;;;;;;;;;698555;28;1325;-64
2023/11/08 01:30:13;;;;;;;4.03;1.13;;;;;;;;;;702530;28;1297;-63
2023/11/08 01:30:34;;;;;;;5.30;1.23;;;;;;;;;;702042;28;1448;-63
2023/11/08 01:30:54;;;;;;;4.95;1.48;;;;;;;;;;702716;28;4750;-63
2023/11/08 01:31:15;;;;;;;3.07;1.30;;;;;;;;;;702797;28;1336;-64
2023/11/08 01:31:35;;;;;;;2.63;1.05;;;;;;;;;;702300;27;1237;-65
2023/11/08 01:31:56;;;;;;;3.50;1.27;;;;;;;;;;706477;27;1241;-63
2023/11/08 01:32:16;;;;;;;3.63;1.20;;;;;;;;;;704538;28;1281;-63
2023/11/08 01:32:36;;;;;;;3.40;1.07;;;;;;;;;;702488;28;2286;-65
2023/11/08 01:32:57;;;;;;;3.70;1.13;;;;;;;;;;700410;28;1585;-63
2023/11/08 01:33:18;;;;;;;3.22;1.13;;;;;;;;;;700760;28;1087;-63
2023/11/08 01:33:38;;;;;;;2.85;0.90;;;;;;;;;;698701;28;1425;-64
2023/11/08 01:33:58;;;;;;;2.70;1.00;;;;;;;;;;697403;28;4889;-65
2023/11/08 01:34:19;;;;;;;2.58;1.00;;;;;;;;;;699001;28;1317;-64
2023/11/08 01:34:39;;;;;;;2.93;1.00;;;;;;;;;;698576;28;1072;-63
2023/11/08 01:35:00;;;;;;;3.87;1.00;;;;;;;;;;700454;28;1328;-62
2023/11/08 01:35:20;;;;;;;3.80;1.07;;;;;;;;;;698109;28;1278;-63
2023/11/08 01:35:40;;;;;;;3.42;1.10;;;;;;;;;;702156;28;1292;-61
2023/11/08 01:36:01;;;;;;;3.33;1.13;;;;;;;;;;700085;28;2959;-64
2023/11/08 01:36:21;;;;;;;4.87;1.20;;;;;;;;;;702177;28;1245;-63
2023/11/08 01:36:42;;;;;;;2.70;1.00;;;;;;;;;;701303;28;967;-63
2023/11/08 01:37:04;;;;;;;2.55;0.93;;;;;;;;;;702945;28;4787;-63
2023/11/08 01:37:24;;;;;;;3.53;0.90;;;;;;;;;;703455;28;1291;-63
2023/11/08 01:37:45;;;;;;;3.47;0.95;;;;;;;;;;704831;28;828;-63
2023/11/08 01:38:05;;;;;;;4.37;1.00;;;;;;;;;;703272;28;1144;-64
2023/11/08 01:38:26;;;;;;;3.47;1.00;;;;;;;;;;698517;28;1214;-64
2023/11/08 01:38:46;;;;;;;3.28;1.20;;;;;;;;;;698799;28;1320;-63
2023/11/08 01:39:07;;;;;;;3.27;1.07;;;;;;;;;;700447;28;5265;-63
2023/11/08 01:39:27;;;;;;;3.75;1.23;;;;;;;;;;699147;28;865;-62
2023/11/08 01:39:47;;;;;;;4.33;1.40;;;;;;;;;;697189;28;1175;-63
2023/11/08 01:40:08;;;;;;;4.22;1.00;;;;;;;;;;698372;28;4474;-63
2023/11/08 01:40:28;;;;;;;3.90;0.90;;;;;;;;;;694049;28;1155;-62
2023/11/08 01:40:49;;;;;;;4.03;1.00;;;;;;;;;;695835;28;1124;-62
2023/11/08 01:41:09;;;;;;;3.73;1.17;;;;;;;;;;695928;28;885;-63
2023/11/08 01:41:29;;;;;;;4.53;1.40;;;;;;;;;;696660;28;1633;-63
2023/11/08 01:41:49;;;;;;;2.53;1.10;;;;;;;;;;699107;28;888;-64
2023/11/08 01:42:10;;;;;;;2.90;1.20;;;;;;;;;;701736;28;805;-64
2023/11/08 01:42:30;;;;;;;3.30;1.07;;;;;;;;;;702535;28;1227;-63
2023/11/08 01:42:51;;;;;;;3.28;1.08;;;;;;;;;;704121;28;1750;-63
2023/11/08 01:43:30;;;;;;;3.13;1.00;;;;;;;;;;703997;28;4594;-63
2023/11/08 01:43:51;;;;;;;3.42;1.00;;;;;;;;;;700558;28;1482;-63
2023/11/08 01:44:12;;;;;;;3.85;1.00;;;;;;;;;;701915;28;936;-63
2023/11/08 01:44:34;;;;;;;3.10;0.90;;;;;;;;;;700103;28;1114;-64
2023/11/08 01:44:54;;;;;;;2.88;1.27;;;;;;;;;;700407;28;829;-64
2023/11/08 01:45:15;;;;;;;3.03;1.10;;;;;;;;;;699631;28;810;-63
2023/11/08 01:45:35;;;;;;;3.72;1.00;;;;;;;;;;697199;28;1246;-63
2023/11/08 01:46:07;;;;;;;2.30;0.83;;;;;;;;;;699479;28;4244;-64
2023/11/08 01:46:27;;;;;;;3.00;1.10;;;;;;;;;;699383;28;1033;-63
2023/11/08 01:46:50;;;;;;;2.97;1.10;;;;;;;;;;700144;28;1322;-63
2023/11/08 01:47:14;;;;;;;3.40;1.08;;;;;;;;;;701087;28;801;-63
2023/11/08 01:47:35;;;;;;;4.18;1.10;;;;;;;;;;701618;28;1947;-64
2023/11/08 01:47:55;;;;;;;3.95;1.00;;;;;;;;;;701573;28;1640;-63
2023/11/08 01:48:15;;;;;;;3.67;1.10;;;;;;;;;;701703;28;844;-64
2023/11/08 01:48:36;;;;;;;3.90;1.17;;;;;;;;;;701251;28;1022;-64
2023/11/08 01:48:59;;;;;;;4.05;1.10;;;;;;;;;;702371;28;4397;-63
2023/11/08 01:49:21;;;;;;;3.50;1.00;;;;;;;;;;701173;28;1063;-64
2023/11/08 01:49:41;;;;;;;3.92;1.10;;;;;;;;;;704341;27;927;-64
2023/11/08 01:50:04;;;;;;;3.60;1.10;;;;;;;;;;705785;27;863;-63
2023/11/08 01:50:24;;;;;;;3.40;1.10;;;;;;;;;;704960;27;1271;-63
2023/11/08 01:50:45;;;;;;;4.60;1.10;;;;;;;;;;702543;28;888;-64
2023/11/08 01:51:05;;;;;;;2.70;1.00;;;;;;;;;;702267;28;916;-63
2023/11/08 01:51:26;;;;;;;2.72;1.00;;;;;;;;;;701170;28;1271;-64
2023/11/08 01:51:46;;;;;;;4.03;1.00;;;;;;;;;;700420;28;1273;-64
2023/11/08 01:52:06;;;;;;;4.80;1.00;;;;;;;;;;699130;28;4290;-64
2023/11/08 01:52:27;;;;;;;2.90;1.00;;;;;;;;;;700119;28;1093;-62
2023/11/08 01:52:47;;;;;;;2.13;0.98;;;;;;;;;;697940;28;1446;-64
2023/11/08 01:53:08;;;;;;;3.20;1.10;;;;;;;;;;693911;28;1147;-64
2023/11/08 01:53:28;;;;;;;3.35;1.00;;;;;;;;;;692926;28;1119;-64
2023/11/08 01:53:49;;;;;;;3.50;0.90;;;;;;;;;;696795;28;776;-63
2023/11/08 01:54:10;;;;;;;4.97;1.00;;;;;;;;;;698224;28;844;-64
2023/11/08 01:54:31;;;;;;;5.03;1.08;;;;;;;;;;696023;28;1199;-63
2023/11/08 01:54:51;;;;;;;3.60;1.20;;;;;;;;;;703141;27;926;-64
2023/11/08 01:55:12;;;;;;;2.88;1.08;;;;;;;;;;700324;28;4365;-63
2023/11/08 01:55:32;;;;;;;3.77;1.20;;;;;;;;;;698930;28;1135;-63
2023/11/08 01:55:52;;;;;;;3.70;1.03;;;;;;;;;;698878;28;1135;-63
2023/11/08 01:56:13;;;;;;;3.50;1.08;;;;;;;;;;693544;28;1581;-64
2023/11/08 01:56:34;;;;;;;4.23;1.10;;;;;;;;;;693765;28;1291;-62
2023/11/08 01:56:55;;;;;;;2.88;1.00;;;;;;;;;;695543;28;868;-63
2023/11/08 01:57:15;;;;;;;4.78;1.20;;;;;;;;;;694137;28;1507;-62
2023/11/08 01:57:36;;;;;;;3.88;1.10;;;;;;;;;;694407;28;1179;-64
2023/11/08 01:57:59;;;;;;;3.43;1.00;;;;;;;;;;692982;28;4472;-64
2023/11/08 01:58:20;;;;;;;4.28;1.15;;;;;;;;;;693815;28;1362;-63
2023/11/08 01:58:40;;;;;;;3.63;1.00;;;;;;;;;;692648;28;1562;-63
2023/11/08 01:59:01;;;;;;;3.27;0.90;;;;;;;;;;691091;28;1494;-64
2023/11/08 01:59:24;;;;;;;4.43;1.00;;;;;;;;;;692453;28;965;-64
2023/11/08 01:59:46;;;;;;;3.17;1.00;;;;;;;;;;696933;28;1246;-64
2023/11/08 02:00:07;;;;;;;2.80;0.90;;;;;;;;;;696209;28;1251;-64
2023/11/08 02:00:34;;;;;;;4.72;1.00;;;;;;;;;;696119;28;914;-63
2023/11/08 02:00:55;;;;;;;3.47;1.00;;;;;;;;;;698419;28;4309;-64
2023/11/08 02:01:16;;;;;;;4.22;1.10;;;;;;;;;;699856;28;919;-63
2023/11/08 02:01:36;;;;;;;3.78;1.00;;;;;;;;;;699570;28;1233;-63
2023/11/08 02:01:58;;;;;;;2.53;0.90;;;;;;;;;;702007;28;1206;-64
2023/11/08 02:02:22;;;;;;;3.60;1.00;;;;;;;;;;701959;28;1440;-64
2023/11/08 02:02:44;;;;;;;3.60;1.00;;;;;;;;;;703463;28;951;-64
2023/11/08 02:03:05;;;;;;;3.13;1.10;;;;;;;;;;703745;28;964;-62
2023/11/08 02:03:27;;;;;;;2.23;1.10;;;;;;;;;;701796;28;1279;-62
2023/11/08 02:03:49;;;;;;;2.83;1.13;;;;;;;;;;700778;28;874;-64
2023/11/08 02:04:09;;;;;;;3.85;1.00;;;;;;;;;;701973;28;4349;-63
2023/11/08 02:04:31;;;;;;;2.80;0.97;;;;;;;;;;700336;28;1062;-64
2023/11/08 02:04:52;;;;;;;2.17;0.90;;;;;;;;;;700157;28;857;-63
2023/11/08 02:05:12;;;;;;;2.80;0.80;;;;;;;;;;701050;28;971;-63
2023/11/08 02:05:33;;;;;;;3.40;1.07;;;;;;;;;;700224;28;1121;-63
2023/11/08 02:05:54;;;;;;;2.60;1.00;;;;;;;;;;701370;28;959;-64
2023/11/08 02:06:15;;;;;;;2.22;1.00;;;;;;;;;;700992;28;1073;-64
2023/11/08 02:06:36;;;;;;;2.35;0.82;;;;;;;;;;697846;28;1431;-63
2023/11/08 02:06:56;;;;;;;3.40;1.00;;;;;;;;;;701288;28;4500;-63
2023/11/08 02:07:16;;;;;;;2.80;0.90;;;;;;;;;;698346;28;1973;-64
2023/11/08 02:07:37;;;;;;;2.67;1.00;;;;;;;;;;694197;28;1192;-62
2023/11/08 02:07:58;;;;;;;3.33;1.10;;;;;;;;;;693109;28;1327;-63
2023/11/08 02:08:18;;;;;;;3.43;1.00;;;;;;;;;;692073;28;869;-64
2023/11/08 02:08:42;;;;;;;3.38;0.90;;;;;;;;;;691336;28;1311;-63
2023/11/08 02:09:03;;;;;;;3.50;0.90;;;;;;;;;;693885;28;955;-63